UAL433 KLAX-KSFO
Flight info
| Callsign | UAL433 |
|---|---|
| Flight time | 1h 0m |
| Altitude | 38000 |
| Route | SUMMR2 STOKD SERFR SERFR4 |
| Aircraft | B789/H-SDE1E2E3FGHIJ2J3J4J5M1RWXY/LB1D1 |
Departure
| Time | 2026-04-20 18:06 |
|---|---|
| Airport | Los Angeles International Airport (KLAX) |
Arrival
| Time | 2026-04-20 19:07 |
|---|---|
| Airport | San Francisco International Airport (KSFO) |
| Time | Latitude | Longitude | Altitude | Speed | Heading |
|---|---|---|---|---|---|
| 2026-04-20 17:36 | 33.94260 | -118.41132 | 131 ft | 0 kts | 85° |
| 2026-04-20 17:53 | 33.94259 | -118.41141 | 131 ft | 3 kts | 85° |
| 2026-04-20 17:53 | 33.94258 | -118.41164 | 130 ft | 3 kts | 85° |
| 2026-04-20 17:54 | 33.94256 | -118.41186 | 125 ft | 3 kts | 85° |
| 2026-04-20 17:54 | 33.94255 | -118.41208 | 127 ft | 3 kts | 85° |
| 2026-04-20 17:54 | 33.94255 | -118.41214 | 126 ft | 0 kts | 85° |
| 2026-04-20 17:56 | 33.94254 | -118.41212 | 126 ft | 0 kts | 93° |
| 2026-04-20 17:56 | 33.94253 | -118.41209 | 126 ft | 1 kts | 108° |
| 2026-04-20 17:56 | 33.94250 | -118.41206 | 127 ft | 1 kts | 133° |
| 2026-04-20 17:57 | 33.94241 | -118.41202 | 125 ft | 1 kts | 172° |
| 2026-04-20 17:57 | 33.94227 | -118.41202 | 127 ft | 2 kts | 178° |
| 2026-04-20 17:57 | 33.94224 | -118.41202 | 129 ft | 0 kts | 178° |
| 2026-04-20 17:57 | 33.94216 | -118.41201 | 128 ft | 4 kts | 178° |
| 2026-04-20 17:58 | 33.94193 | -118.41200 | 128 ft | 8 kts | 178° |
| 2026-04-20 17:58 | 33.94186 | -118.41200 | 126 ft | 9 kts | 178° |
| 2026-04-20 17:58 | 33.94101 | -118.41194 | 128 ft | 15 kts | 174° |
| 2026-04-20 17:59 | 33.93978 | -118.41180 | 128 ft | 19 kts | 173° |
| 2026-04-20 17:59 | 33.93848 | -118.41161 | 128 ft | 18 kts | 172° |
| 2026-04-20 17:59 | 33.93777 | -118.41129 | 128 ft | 6 kts | 124° |
| 2026-04-20 17:59 | 33.93771 | -118.41075 | 129 ft | 7 kts | 85° |
| 2026-04-20 18:00 | 33.93776 | -118.41000 | 131 ft | 10 kts | 83° |
| 2026-04-20 18:00 | 33.93786 | -118.40906 | 131 ft | 13 kts | 83° |
| 2026-04-20 18:00 | 33.93799 | -118.40775 | 128 ft | 19 kts | 83° |
| 2026-04-20 18:00 | 33.93816 | -118.40609 | 130 ft | 21 kts | 83° |
| 2026-04-20 18:01 | 33.93835 | -118.40432 | 130 ft | 21 kts | 82° |
| 2026-04-20 18:01 | 33.93852 | -118.40260 | 129 ft | 22 kts | 83° |
| 2026-04-20 18:01 | 33.93871 | -118.40076 | 129 ft | 22 kts | 84° |
| 2026-04-20 18:01 | 33.93890 | -118.39887 | 130 ft | 23 kts | 83° |
| 2026-04-20 18:02 | 33.93910 | -118.39691 | 128 ft | 25 kts | 83° |
| 2026-04-20 18:02 | 33.93931 | -118.39481 | 131 ft | 26 kts | 83° |
| 2026-04-20 18:02 | 33.93955 | -118.39265 | 127 ft | 26 kts | 82° |
| 2026-04-20 18:02 | 33.93977 | -118.39041 | 131 ft | 27 kts | 83° |
| 2026-04-20 18:03 | 33.93999 | -118.38812 | 127 ft | 28 kts | 83° |
| 2026-04-20 18:03 | 33.94025 | -118.38577 | 127 ft | 28 kts | 82° |
| 2026-04-20 18:03 | 33.94049 | -118.38344 | 129 ft | 28 kts | 83° |
| 2026-04-20 18:03 | 33.94070 | -118.38126 | 127 ft | 21 kts | 83° |
| 2026-04-20 18:04 | 33.94075 | -118.38024 | 131 ft | 5 kts | 112° |
| 2026-04-20 18:04 | 33.94052 | -118.38006 | 130 ft | 7 kts | 159° |
| 2026-04-20 18:04 | 33.94003 | -118.38006 | 125 ft | 3 kts | 216° |
| 2026-04-20 18:04 | 33.93983 | -118.38045 | 130 ft | 8 kts | 251° |
| 2026-04-20 18:05 | 33.93951 | -118.38359 | 128 ft | 48 kts | 263° |
| 2026-04-20 18:05 | 33.93884 | -118.39008 | 124 ft | 108 kts | 263° |
| 2026-04-20 18:05 | 33.93770 | -118.40111 | 141 ft | 158 kts | 263° |
| 2026-04-20 18:06 | 33.93662 | -118.41471 | 637 ft | 163 kts | 270° |
| 2026-04-20 18:06 | 33.93570 | -118.42865 | 1354 ft | 170 kts | 263° |
| 2026-04-20 18:06 | 33.93344 | -118.44289 | 2106 ft | 183 kts | 258° |
| 2026-04-20 18:06 | 33.93162 | -118.45929 | 2546 ft | 211 kts | 264° |
| 2026-04-20 18:07 | 33.93100 | -118.47821 | 2970 ft | 242 kts | 263° |
| 2026-04-20 18:07 | 33.92860 | -118.49943 | 3608 ft | 264 kts | 261° |
| 2026-04-20 18:07 | 33.92641 | -118.52154 | 4651 ft | 273 kts | 263° |
| 2026-04-20 18:07 | 33.92457 | -118.54481 | 4989 ft | 281 kts | 264° |
| 2026-04-20 18:08 | 33.92281 | -118.56795 | 4985 ft | 274 kts | 263° |
| 2026-04-20 18:08 | 33.92092 | -118.59074 | 4987 ft | 272 kts | 263° |
| 2026-04-20 18:08 | 33.91899 | -118.61343 | 4985 ft | 271 kts | 263° |
| 2026-04-20 18:08 | 33.91782 | -118.63605 | 4979 ft | 271 kts | 271° |
| 2026-04-20 18:09 | 33.91819 | -118.65871 | 4984 ft | 271 kts | 267° |
| 2026-04-20 18:09 | 33.91763 | -118.68141 | 4982 ft | 271 kts | 267° |
| 2026-04-20 18:09 | 33.91738 | -118.70410 | 4983 ft | 271 kts | 269° |
| 2026-04-20 18:09 | 33.91740 | -118.72682 | 4980 ft | 271 kts | 269° |
| 2026-04-20 18:10 | 33.91736 | -118.74943 | 4984 ft | 270 kts | 269° |
| 2026-04-20 18:10 | 33.91725 | -118.77233 | 5668 ft | 269 kts | 268° |
| 2026-04-20 18:10 | 33.91714 | -118.79481 | 6839 ft | 271 kts | 268° |
| 2026-04-20 18:10 | 33.91703 | -118.81766 | 7825 ft | 275 kts | 267° |
| 2026-04-20 18:11 | 33.91737 | -118.84082 | 8806 ft | 280 kts | 272° |
| 2026-04-20 18:11 | 33.91839 | -118.86397 | 9780 ft | 282 kts | 268° |
| 2026-04-20 18:11 | 33.91860 | -118.88796 | 10528 ft | 295 kts | 268° |
| 2026-04-20 18:11 | 33.91916 | -118.91374 | 10810 ft | 323 kts | 269° |
| 2026-04-20 18:12 | 33.92014 | -118.94178 | 11224 ft | 341 kts | 270° |
| 2026-04-20 18:12 | 33.92112 | -118.97036 | 12170 ft | 342 kts | 269° |
| 2026-04-20 18:12 | 33.92210 | -118.99928 | 13004 ft | 347 kts | 272° |
| 2026-04-20 18:12 | 33.92875 | -119.02760 | 13811 ft | 359 kts | 291° |
| 2026-04-20 18:13 | 33.94143 | -119.05389 | 14513 ft | 366 kts | 297° |
| 2026-04-20 18:13 | 33.94858 | -119.06781 | 14916 ft | 368 kts | 298° |
| 2026-04-20 18:14 | 33.95162 | -119.07361 | 15076 ft | 369 kts | 298° |
| 2026-04-20 18:14 | 33.96545 | -119.09992 | 15812 ft | 373 kts | 298° |
| 2026-04-20 18:14 | 33.97925 | -119.12655 | 16535 ft | 376 kts | 297° |
| 2026-04-20 18:14 | 33.99290 | -119.15322 | 17223 ft | 380 kts | 297° |
| 2026-04-20 18:15 | 34.00797 | -119.18017 | 17879 ft | 389 kts | 307° |
| 2026-04-20 18:15 | 34.02797 | -119.20193 | 18509 ft | 399 kts | 320° |
| 2026-04-20 18:15 | 34.05104 | -119.22187 | 19091 ft | 403 kts | 320° |
| 2026-04-20 18:15 | 34.07402 | -119.24140 | 19691 ft | 406 kts | 320° |
| 2026-04-20 18:16 | 34.09686 | -119.26091 | 20255 ft | 408 kts | 320° |
| 2026-04-20 18:16 | 34.12006 | -119.28093 | 20836 ft | 411 kts | 320° |
| 2026-04-20 18:16 | 34.14331 | -119.30103 | 21388 ft | 414 kts | 320° |
| 2026-04-20 18:16 | 34.16685 | -119.32128 | 21910 ft | 416 kts | 320° |
| 2026-04-20 18:17 | 34.19052 | -119.34164 | 22440 ft | 419 kts | 320° |
| 2026-04-20 18:17 | 34.21433 | -119.36219 | 22927 ft | 422 kts | 320° |
| 2026-04-20 18:17 | 34.23825 | -119.38285 | 23418 ft | 424 kts | 320° |
| 2026-04-20 18:17 | 34.26227 | -119.40360 | 23846 ft | 427 kts | 320° |
| 2026-04-20 18:18 | 34.28654 | -119.42458 | 24223 ft | 429 kts | 320° |
| 2026-04-20 18:18 | 34.31086 | -119.44562 | 24575 ft | 432 kts | 320° |
| 2026-04-20 18:18 | 34.33545 | -119.46691 | 24941 ft | 435 kts | 320° |
| 2026-04-20 18:18 | 34.36013 | -119.48829 | 25286 ft | 437 kts | 320° |
| 2026-04-20 18:19 | 34.38498 | -119.50984 | 25644 ft | 440 kts | 320° |
| 2026-04-20 18:19 | 34.40968 | -119.53181 | 25996 ft | 440 kts | 315° |
| 2026-04-20 18:19 | 34.43150 | -119.55765 | 26305 ft | 440 kts | 310° |
| 2026-04-20 18:19 | 34.45311 | -119.58405 | 26691 ft | 442 kts | 310° |
| 2026-04-20 18:20 | 34.47450 | -119.61030 | 27048 ft | 445 kts | 310° |
| 2026-04-20 18:20 | 34.49625 | -119.63712 | 27349 ft | 449 kts | 310° |
| 2026-04-20 18:20 | 34.51829 | -119.66427 | 27788 ft | 450 kts | 310° |
| 2026-04-20 18:20 | 34.54029 | -119.69133 | 28158 ft | 453 kts | 310° |
| 2026-04-20 18:21 | 34.56251 | -119.71873 | 28527 ft | 456 kts | 310° |
| 2026-04-20 18:21 | 34.58480 | -119.74626 | 28893 ft | 459 kts | 310° |
| 2026-04-20 18:21 | 34.60721 | -119.77394 | 29268 ft | 462 kts | 310° |
| 2026-04-20 18:21 | 34.62981 | -119.80186 | 29596 ft | 464 kts | 310° |
| 2026-04-20 18:22 | 34.65254 | -119.82997 | 29996 ft | 467 kts | 310° |
| 2026-04-20 18:22 | 34.67537 | -119.85824 | 30313 ft | 470 kts | 310° |
| 2026-04-20 18:22 | 34.69830 | -119.88666 | 30652 ft | 472 kts | 310° |
| 2026-04-20 18:22 | 34.72136 | -119.91526 | 30976 ft | 475 kts | 310° |
| 2026-04-20 18:23 | 34.74419 | -119.94359 | 31280 ft | 477 kts | 310° |
| 2026-04-20 18:23 | 34.76782 | -119.97296 | 31582 ft | 479 kts | 310° |
| 2026-04-20 18:23 | 34.79083 | -120.00156 | 31899 ft | 481 kts | 310° |
| 2026-04-20 18:23 | 34.81430 | -120.03077 | 32200 ft | 483 kts | 311° |
| 2026-04-20 18:24 | 34.83792 | -120.06019 | 32449 ft | 487 kts | 311° |
| 2026-04-20 18:24 | 34.86160 | -120.08970 | 32747 ft | 489 kts | 311° |
| 2026-04-20 18:24 | 34.88541 | -120.11941 | 33059 ft | 491 kts | 310° |
| 2026-04-20 18:24 | 34.90940 | -120.14937 | 33354 ft | 494 kts | 311° |
| 2026-04-20 18:25 | 34.93330 | -120.17924 | 33764 ft | 493 kts | 311° |
| 2026-04-20 18:25 | 34.95731 | -120.20926 | 34158 ft | 492 kts | 311° |
| 2026-04-20 18:25 | 34.98116 | -120.23913 | 34520 ft | 492 kts | 311° |
| 2026-04-20 18:25 | 35.00508 | -120.26912 | 34882 ft | 491 kts | 311° |
| 2026-04-20 18:26 | 35.02888 | -120.29897 | 35241 ft | 490 kts | 310° |
| 2026-04-20 18:26 | 35.05262 | -120.32877 | 35600 ft | 489 kts | 310° |
| 2026-04-20 18:26 | 35.06832 | -120.34849 | 35827 ft | 489 kts | 310° |
| 2026-04-20 18:26 | 35.10050 | -120.38711 | 36263 ft | 489 kts | 315° |
| 2026-04-20 18:27 | 35.12567 | -120.41507 | 36551 ft | 489 kts | 314° |
| 2026-04-20 18:27 | 35.15065 | -120.44326 | 36907 ft | 488 kts | 314° |
| 2026-04-20 18:27 | 35.16750 | -120.46227 | 37108 ft | 488 kts | 314° |
| 2026-04-20 18:27 | 35.19259 | -120.49034 | 37422 ft | 487 kts | 314° |
| 2026-04-20 18:28 | 35.21731 | -120.51795 | 37734 ft | 487 kts | 314° |
| 2026-04-20 18:28 | 35.24218 | -120.54588 | 38055 ft | 486 kts | 314° |
| 2026-04-20 18:28 | 35.29221 | -120.60224 | 38057 ft | 488 kts | 314° |
| 2026-04-20 18:29 | 35.34200 | -120.65825 | 38058 ft | 484 kts | 313° |
| 2026-04-20 18:29 | 35.39149 | -120.71416 | 38061 ft | 484 kts | 313° |
| 2026-04-20 18:30 | 35.44108 | -120.77019 | 38064 ft | 484 kts | 313° |
| 2026-04-20 18:30 | 35.49113 | -120.82546 | 38115 ft | 486 kts | 320° |
| 2026-04-20 18:31 | 35.54545 | -120.87559 | 38090 ft | 488 kts | 319° |
| 2026-04-20 18:31 | 35.59958 | -120.92589 | 38086 ft | 488 kts | 319° |
| 2026-04-20 18:32 | 35.65335 | -120.97586 | 38090 ft | 488 kts | 319° |
| 2026-04-20 18:32 | 35.70755 | -121.02635 | 38081 ft | 488 kts | 319° |
| 2026-04-20 18:33 | 35.76165 | -121.07683 | 38076 ft | 488 kts | 319° |
| 2026-04-20 18:33 | 35.81575 | -121.12740 | 38078 ft | 488 kts | 319° |
| 2026-04-20 18:34 | 35.86979 | -121.17800 | 38073 ft | 488 kts | 319° |
| 2026-04-20 18:34 | 35.92375 | -121.22859 | 37419 ft | 485 kts | 319° |
| 2026-04-20 18:35 | 35.95076 | -121.25398 | 36668 ft | 486 kts | 319° |
| 2026-04-20 18:35 | 35.97738 | -121.27900 | 35985 ft | 486 kts | 318° |
| 2026-04-20 18:35 | 36.00419 | -121.30421 | 35329 ft | 484 kts | 318° |
| 2026-04-20 18:35 | 36.03096 | -121.32943 | 34668 ft | 483 kts | 318° |
| 2026-04-20 18:36 | 36.05769 | -121.35462 | 34003 ft | 482 kts | 318° |
| 2026-04-20 18:36 | 36.08537 | -121.37797 | 33338 ft | 481 kts | 324° |
| 2026-04-20 18:36 | 36.11363 | -121.39991 | 32680 ft | 478 kts | 323° |
| 2026-04-20 18:36 | 36.14178 | -121.42185 | 32031 ft | 476 kts | 323° |
| 2026-04-20 18:37 | 36.16967 | -121.44364 | 31396 ft | 472 kts | 323° |
| 2026-04-20 18:37 | 36.19740 | -121.46530 | 30758 ft | 469 kts | 323° |
| 2026-04-20 18:37 | 36.22487 | -121.48677 | 30139 ft | 466 kts | 322° |
| 2026-04-20 18:37 | 36.25218 | -121.50813 | 29480 ft | 462 kts | 322° |
| 2026-04-20 18:38 | 36.27927 | -121.52933 | 28864 ft | 456 kts | 322° |
| 2026-04-20 18:38 | 36.30598 | -121.55026 | 28256 ft | 451 kts | 322° |
| 2026-04-20 18:38 | 36.33231 | -121.57091 | 27673 ft | 445 kts | 322° |
| 2026-04-20 18:38 | 36.35833 | -121.59133 | 27080 ft | 440 kts | 321° |
| 2026-04-20 18:39 | 36.38364 | -121.61122 | 26514 ft | 436 kts | 321° |
| 2026-04-20 18:39 | 36.40929 | -121.63139 | 25947 ft | 432 kts | 321° |
| 2026-04-20 18:39 | 36.43457 | -121.65127 | 25394 ft | 428 kts | 321° |
| 2026-04-20 18:39 | 36.45902 | -121.67042 | 24824 ft | 401 kts | 320° |
| 2026-04-20 18:40 | 36.48254 | -121.68896 | 24324 ft | 404 kts | 320° |
| 2026-04-20 18:40 | 36.50630 | -121.70791 | 23905 ft | 404 kts | 320° |
| 2026-04-20 18:40 | 36.52998 | -121.72658 | 23397 ft | 405 kts | 320° |
| 2026-04-20 18:40 | 36.55384 | -121.74535 | 22851 ft | 402 kts | 320° |
| 2026-04-20 18:41 | 36.57730 | -121.76389 | 22333 ft | 399 kts | 320° |
| 2026-04-20 18:41 | 36.60072 | -121.78247 | 21804 ft | 396 kts | 320° |
| 2026-04-20 18:41 | 36.62393 | -121.80086 | 21289 ft | 393 kts | 320° |
| 2026-04-20 18:41 | 36.64695 | -121.81909 | 20757 ft | 390 kts | 320° |
| 2026-04-20 18:42 | 36.66974 | -121.83717 | 20256 ft | 388 kts | 320° |
| 2026-04-20 18:42 | 36.69256 | -121.85529 | 19720 ft | 385 kts | 320° |
| 2026-04-20 18:42 | 36.71508 | -121.87318 | 19227 ft | 382 kts | 320° |
| 2026-04-20 18:42 | 36.73757 | -121.89003 | 18732 ft | 385 kts | 329° |
| 2026-04-20 18:43 | 36.76326 | -121.90038 | 18238 ft | 390 kts | 342° |
| 2026-04-20 18:43 | 36.78965 | -121.90791 | 17671 ft | 388 kts | 343° |
| 2026-04-20 18:43 | 36.81597 | -121.91498 | 17178 ft | 383 kts | 343° |
| 2026-04-20 18:43 | 36.84186 | -121.92208 | 16676 ft | 380 kts | 343° |
| 2026-04-20 18:44 | 36.86749 | -121.92934 | 16174 ft | 377 kts | 343° |
| 2026-04-20 18:44 | 36.89293 | -121.93652 | 15685 ft | 374 kts | 343° |
| 2026-04-20 18:44 | 36.91832 | -121.94359 | 15182 ft | 371 kts | 344° |
| 2026-04-20 18:44 | 36.94336 | -121.95057 | 14706 ft | 367 kts | 344° |
| 2026-04-20 18:45 | 36.96753 | -121.95969 | 14220 ft | 362 kts | 338° |
| 2026-04-20 18:45 | 36.99167 | -121.96905 | 13739 ft | 363 kts | 341° |
| 2026-04-20 18:45 | 37.01592 | -121.97785 | 13227 ft | 359 kts | 340° |
| 2026-04-20 18:45 | 37.03929 | -121.98689 | 12766 ft | 355 kts | 339° |
| 2026-04-20 18:46 | 37.06270 | -121.99628 | 12287 ft | 351 kts | 339° |
| 2026-04-20 18:46 | 37.08595 | -122.00544 | 11826 ft | 348 kts | 340° |
| 2026-04-20 18:46 | 37.10903 | -122.01435 | 11369 ft | 345 kts | 340° |
| 2026-04-20 18:46 | 37.13182 | -122.02322 | 10903 ft | 343 kts | 340° |
| 2026-04-20 18:47 | 37.15446 | -122.03211 | 10457 ft | 337 kts | 340° |
| 2026-04-20 18:47 | 37.17643 | -122.04088 | 10446 ft | 324 kts | 336° |
| 2026-04-20 18:47 | 37.19375 | -122.05565 | 10434 ft | 296 kts | 302° |
| 2026-04-20 18:47 | 37.20343 | -122.07814 | 10451 ft | 294 kts | 288° |
| 2026-04-20 18:48 | 37.21229 | -122.10138 | 10457 ft | 292 kts | 291° |
| 2026-04-20 18:48 | 37.22245 | -122.12338 | 10463 ft | 294 kts | 296° |
| 2026-04-20 18:48 | 37.23352 | -122.14531 | 10466 ft | 298 kts | 296° |
| 2026-04-20 18:48 | 37.24433 | -122.16753 | 10469 ft | 299 kts | 295° |
| 2026-04-20 18:49 | 37.25471 | -122.18955 | 10464 ft | 289 kts | 294° |
| 2026-04-20 18:49 | 37.26505 | -122.21150 | 10467 ft | 296 kts | 295° |
| 2026-04-20 18:49 | 37.27568 | -122.23382 | 10472 ft | 298 kts | 295° |
| 2026-04-20 18:49 | 37.28622 | -122.25583 | 10468 ft | 292 kts | 295° |
| 2026-04-20 18:50 | 37.29673 | -122.27786 | 10467 ft | 293 kts | 295° |
| 2026-04-20 18:50 | 37.30712 | -122.29986 | 10471 ft | 299 kts | 295° |
| 2026-04-20 18:50 | 37.31777 | -122.32230 | 10474 ft | 295 kts | 295° |
| 2026-04-20 18:50 | 37.32820 | -122.34413 | 10468 ft | 293 kts | 294° |
| 2026-04-20 18:51 | 37.33870 | -122.36637 | 10461 ft | 298 kts | 294° |
| 2026-04-20 18:51 | 37.34930 | -122.38873 | 10319 ft | 292 kts | 295° |
| 2026-04-20 18:51 | 37.35965 | -122.41048 | 10109 ft | 290 kts | 294° |
| 2026-04-20 18:51 | 37.36984 | -122.43198 | 9807 ft | 281 kts | 294° |
| 2026-04-20 18:52 | 37.37972 | -122.45288 | 9501 ft | 277 kts | 294° |
| 2026-04-20 18:52 | 37.38957 | -122.47382 | 9209 ft | 279 kts | 294° |
| 2026-04-20 18:52 | 37.39947 | -122.49477 | 8899 ft | 275 kts | 294° |
| 2026-04-20 18:52 | 37.40919 | -122.51529 | 8613 ft | 274 kts | 294° |
| 2026-04-20 18:53 | 37.41893 | -122.53600 | 8337 ft | 275 kts | 294° |
| 2026-04-20 18:53 | 37.42860 | -122.55650 | 8060 ft | 275 kts | 294° |
| 2026-04-20 18:53 | 37.43826 | -122.57695 | 7748 ft | 269 kts | 294° |
| 2026-04-20 18:53 | 37.44788 | -122.59741 | 7467 ft | 273 kts | 294° |
| 2026-04-20 18:54 | 37.45752 | -122.61789 | 7170 ft | 270 kts | 294° |
| 2026-04-20 18:54 | 37.46700 | -122.63796 | 6874 ft | 266 kts | 293° |
| 2026-04-20 18:54 | 37.47636 | -122.65793 | 6589 ft | 263 kts | 293° |
| 2026-04-20 18:54 | 37.48558 | -122.67753 | 6358 ft | 256 kts | 294° |
| 2026-04-20 18:55 | 37.49617 | -122.69522 | 6191 ft | 250 kts | 305° |
| 2026-04-20 18:55 | 37.50795 | -122.71126 | 5913 ft | 251 kts | 306° |
| 2026-04-20 18:55 | 37.51896 | -122.72798 | 5570 ft | 247 kts | 300° |
| 2026-04-20 18:55 | 37.52923 | -122.74531 | 5227 ft | 247 kts | 299° |
| 2026-04-20 18:56 | 37.53938 | -122.76270 | 4890 ft | 246 kts | 299° |
| 2026-04-20 18:56 | 37.54946 | -122.78002 | 4549 ft | 243 kts | 299° |
| 2026-04-20 18:56 | 37.55948 | -122.79709 | 4213 ft | 242 kts | 298° |
| 2026-04-20 18:56 | 37.56951 | -122.81399 | 4007 ft | 237 kts | 299° |
| 2026-04-20 18:57 | 37.58002 | -122.83020 | 3980 ft | 247 kts | 312° |
| 2026-04-20 18:57 | 37.59639 | -122.83835 | 3984 ft | 265 kts | 353° |
| 2026-04-20 18:57 | 37.61452 | -122.83522 | 4009 ft | 264 kts | 17° |
| 2026-04-20 18:57 | 37.63221 | -122.82794 | 4011 ft | 268 kts | 18° |
| 2026-04-20 18:58 | 37.64989 | -122.82080 | 4005 ft | 267 kts | 17° |
| 2026-04-20 18:58 | 37.66737 | -122.81443 | 3999 ft | 265 kts | 15° |
| 2026-04-20 18:58 | 37.68516 | -122.80804 | 4012 ft | 265 kts | 16° |
| 2026-04-20 18:58 | 37.70290 | -122.80148 | 4001 ft | 270 kts | 16° |
| 2026-04-20 18:59 | 37.72176 | -122.79447 | 4017 ft | 290 kts | 16° |
| 2026-04-20 18:59 | 37.74118 | -122.78727 | 4011 ft | 294 kts | 17° |
| 2026-04-20 18:59 | 37.76085 | -122.77980 | 3997 ft | 291 kts | 20° |
| 2026-04-20 18:59 | 37.77810 | -122.76708 | 3994 ft | 291 kts | 48° |
| 2026-04-20 19:00 | 37.78914 | -122.74628 | 4011 ft | 282 kts | 75° |
| 2026-04-20 19:00 | 37.79194 | -122.72233 | 4001 ft | 271 kts | 101° |
| 2026-04-20 19:00 | 37.78694 | -122.70021 | 3998 ft | 257 kts | 124° |
| 2026-04-20 19:00 | 37.77668 | -122.68226 | 4003 ft | 253 kts | 134° |
| 2026-04-20 19:01 | 37.76578 | -122.66489 | 3991 ft | 251 kts | 135° |
| 2026-04-20 19:01 | 37.75474 | -122.64757 | 4006 ft | 253 kts | 135° |
| 2026-04-20 19:01 | 37.74341 | -122.63070 | 4001 ft | 249 kts | 138° |
| 2026-04-20 19:01 | 37.73230 | -122.61405 | 3874 ft | 245 kts | 132° |
| 2026-04-20 19:02 | 37.72346 | -122.59646 | 3614 ft | 233 kts | 126° |
| 2026-04-20 19:02 | 37.71590 | -122.57917 | 3321 ft | 218 kts | 126° |
| 2026-04-20 19:02 | 37.70864 | -122.56324 | 3031 ft | 198 kts | 128° |
| 2026-04-20 19:02 | 37.70206 | -122.54926 | 2801 ft | 176 kts | 129° |
| 2026-04-20 19:03 | 37.69585 | -122.53629 | 2563 ft | 169 kts | 130° |
| 2026-04-20 19:03 | 37.68982 | -122.52362 | 2319 ft | 168 kts | 129° |
| 2026-04-20 19:03 | 37.68405 | -122.51136 | 2104 ft | 156 kts | 129° |
| 2026-04-20 19:03 | 37.67868 | -122.49992 | 1898 ft | 142 kts | 129° |
| 2026-04-20 19:04 | 37.67382 | -122.48966 | 1718 ft | 134 kts | 129° |
| 2026-04-20 19:04 | 37.66927 | -122.47982 | 1541 ft | 125 kts | 130° |
| 2026-04-20 19:04 | 37.66451 | -122.47020 | 1449 ft | 136 kts | 131° |
| 2026-04-20 19:04 | 37.65933 | -122.45982 | 1229 ft | 133 kts | 127° |
| 2026-04-20 19:05 | 37.65474 | -122.44976 | 1069 ft | 135 kts | 123° |
| 2026-04-20 19:05 | 37.65011 | -122.43953 | 968 ft | 134 kts | 124° |
| 2026-04-20 19:05 | 37.64514 | -122.42919 | 665 ft | 144 kts | 125° |
| 2026-04-20 19:05 | 37.63950 | -122.41856 | 479 ft | 142 kts | 128° |
| 2026-04-20 19:06 | 37.63456 | -122.40721 | 328 ft | 161 kts | 122° |
| 2026-04-20 19:06 | 37.62939 | -122.39483 | 114 ft | 155 kts | 122° |
| 2026-04-20 19:06 | 37.62466 | -122.38369 | 27 ft | 118 kts | 116° |
| 2026-04-20 19:06 | 37.62194 | -122.37717 | 30 ft | 60 kts | 117° |
| 2026-04-20 19:07 | 37.62050 | -122.37378 | 24 ft | 28 kts | 119° |
| 2026-04-20 19:07 | 37.61958 | -122.37171 | 23 ft | 28 kts | 120° |
| 2026-04-20 19:07 | 37.61863 | -122.37094 | 24 ft | 7 kts | 198° |
| 2026-04-20 19:07 | 37.61832 | -122.37116 | 30 ft | 5 kts | 210° |
| 2026-04-20 19:08 | 37.61791 | -122.37144 | 29 ft | 10 kts | 208° |
| 2026-04-20 19:08 | 37.61628 | -122.37269 | 29 ft | 12 kts | 243° |
| 2026-04-20 19:08 | 37.61640 | -122.37354 | 27 ft | 9 kts | 309° |
| 2026-04-20 19:09 | 37.61692 | -122.37455 | 31 ft | 19 kts | 297° |
| 2026-04-20 19:09 | 37.61757 | -122.37629 | 28 ft | 23 kts | 294° |
| 2026-04-20 19:09 | 37.61815 | -122.37824 | 28 ft | 24 kts | 290° |
| 2026-04-20 19:09 | 37.61922 | -122.37952 | 26 ft | 21 kts | 318° |
| 2026-04-20 19:10 | 37.62000 | -122.38106 | 25 ft | 21 kts | 297° |
| 2026-04-20 19:10 | 37.62068 | -122.38274 | 28 ft | 22 kts | 296° |
| 2026-04-20 19:10 | 37.62142 | -122.38458 | 30 ft | 24 kts | 300° |
| 2026-04-20 19:10 | 37.62229 | -122.38647 | 26 ft | 26 kts | 299° |
| 2026-04-20 19:11 | 37.62313 | -122.38854 | 20 ft | 27 kts | 297° |
| 2026-04-20 19:11 | 37.62322 | -122.39052 | 18 ft | 22 kts | 253° |
| 2026-04-20 19:11 | 37.62245 | -122.39199 | 20 ft | 19 kts | 205° |
| 2026-04-20 19:11 | 37.62132 | -122.39272 | 19 ft | 18 kts | 209° |
| 2026-04-20 19:12 | 37.62037 | -122.39340 | 23 ft | 11 kts | 215° |
| 2026-04-20 19:12 | 37.62007 | -122.39384 | 26 ft | 6 kts | 236° |
| 2026-04-20 19:12 | 37.61991 | -122.39416 | 23 ft | 7 kts | 237° |
| 2026-04-20 19:12 | 37.61962 | -122.39433 | 26 ft | 1 kts | 175° |
| 2026-04-20 19:13 | 37.61958 | -122.39431 | 25 ft | 3 kts | 167° |
| 2026-04-20 19:13 | 37.61928 | -122.39418 | 25 ft | 4 kts | 154° |
| 2026-04-20 19:13 | 37.61903 | -122.39402 | 25 ft | 3 kts | 154° |
| 2026-04-20 19:13 | 37.61894 | -122.39397 | 25 ft | 1 kts | 155° |
| 2026-04-20 19:14 | 37.61892 | -122.39396 | 25 ft | 0 kts | 155° |